Terminal Aerodrome Forecast
Issued by NWS Mt. Holly, NJ

Home | Current Version | Previous Version | Text Only | Print | Product List | Glossary On
Versions: 1 2 3 4 5 6 7 8 9 10 11 12 13 14 15 16 17 18 19 20
000
FTUS41 KPHI 212200 AAB
TAFTTN
TAF AMD
KTTN 212230Z 2123/2218 34005KT P6SM BKN028
     FM220200 36004KT P6SM SCT030
     FM220400 01003KT P6SM FEW015 BKN250
     FM221300 04004KT P6SM BKN010 BKN120=

USA.gov is the U.S. government's official web portal to all federal, state and local government web resources and services.